sensor_id;sensor_type;location;lat;lon;timestamp;P1;durP1;ratioP1;P2;durP2;ratioP2
83840;SDS011;73868;52.172;10.668;2024-03-23T00:54:43;17.15;;;10.60;;
83840;SDS011;73868;52.172;10.668;2024-03-23T00:57:08;19.83;;;10.15;;
83840;SDS011;73868;52.172;10.668;2024-03-23T00:59:34;17.45;;;9.88;;
83840;SDS011;73868;52.172;10.668;2024-03-23T01:02:00;15.95;;;9.60;;
83840;SDS011;73868;52.172;10.668;2024-03-23T01:04:26;18.58;;;9.32;;
83840;SDS011;73868;52.172;10.668;2024-03-23T01:06:51;16.88;;;8.85;;
83840;SDS011;73868;52.172;10.668;2024-03-23T01:09:17;15.38;;;7.75;;
83840;SDS011;73868;52.172;10.668;2024-03-23T01:11:42;12.07;;;5.60;;
83840;SDS011;73868;52.172;10.668;2024-03-23T01:14:08;9.82;;;4.47;;
83840;SDS011;73868;52.172;10.668;2024-03-23T01:16:33;8.75;;;4.47;;
83840;SDS011;73868;52.172;10.668;2024-03-23T01:18:59;10.73;;;3.63;;
83840;SDS011;73868;52.172;10.668;2024-03-23T01:21:24;12.48;;;3.92;;
83840;SDS011;73868;52.172;10.668;2024-03-23T01:23:50;9.00;;;3.70;;
83840;SDS011;73868;52.172;10.668;2024-03-23T01:26:16;10.23;;;3.28;;
83840;SDS011;73868;52.172;10.668;2024-03-23T01:28:41;9.73;;;3.53;;
83840;SDS011;73868;52.172;10.668;2024-03-23T01:31:07;8.20;;;3.80;;
83840;SDS011;73868;52.172;10.668;2024-03-23T01:33:32;8.20;;;3.53;;
83840;SDS011;73868;52.172;10.668;2024-03-23T01:35:58;9.05;;;3.72;;
83840;SDS011;73868;52.172;10.668;2024-03-23T01:38:23;10.90;;;4.10;;
83840;SDS011;73868;52.172;10.668;2024-03-23T01:40:49;12.43;;;4.95;;
83840;SDS011;73868;52.172;10.668;2024-03-23T01:43:14;12.80;;;4.40;;
83840;SDS011;73868;52.172;10.668;2024-03-23T01:45:40;11.23;;;4.07;;
83840;SDS011;73868;52.172;10.668;2024-03-23T01:48:06;11.48;;;4.22;;
83840;SDS011;73868;52.172;10.668;2024-03-23T01:50:32;9.65;;;4.35;;
83840;SDS011;73868;52.172;10.668;2024-03-23T01:53:00;7.97;;;4.03;;
83840;SDS011;73868;52.172;10.668;2024-03-23T01:55:31;11.88;;;5.07;;
83840;SDS011;73868;52.172;10.668;2024-03-23T01:57:59;10.95;;;4.53;;
83840;SDS011;73868;52.172;10.668;2024-03-23T02:00:26;10.75;;;4.57;;
83840;SDS011;73868;52.172;10.668;2024-03-23T02:02:53;11.95;;;4.53;;
83840;SDS011;73868;52.172;10.668;2024-03-23T02:05:19;8.57;;;4.35;;
83840;SDS011;73868;52.172;10.668;2024-03-23T02:07:45;8.65;;;4.18;;
83840;SDS011;73868;52.172;10.668;2024-03-23T02:10:10;10.02;;;4.45;;
83840;SDS011;73868;52.172;10.668;2024-03-23T02:12:39;11.57;;;4.43;;
83840;SDS011;73868;52.172;10.668;2024-03-23T02:15:05;11.60;;;5.10;;
83840;SDS011;73868;52.172;10.668;2024-03-23T02:17:33;10.43;;;5.00;;
83840;SDS011;73868;52.172;10.668;2024-03-23T02:19:59;9.88;;;4.72;;
83840;SDS011;73868;52.172;10.668;2024-03-23T02:22:34;9.13;;;4.40;;
83840;SDS011;73868;52.172;10.668;2024-03-23T02:25:04;11.20;;;4.77;;
83840;SDS011;73868;52.172;10.668;2024-03-23T02:27:30;10.73;;;4.68;;
83840;SDS011;73868;52.172;10.668;2024-03-23T02:29:55;11.75;;;4.60;;
83840;SDS011;73868;52.172;10.668;2024-03-23T02:32:21;9.77;;;4.65;;
83840;SDS011;73868;52.172;10.668;2024-03-23T02:34:46;10.25;;;4.90;;
83840;SDS011;73868;52.172;10.668;2024-03-23T02:37:12;9.10;;;4.32;;
83840;SDS011;73868;52.172;10.668;2024-03-23T02:39:37;9.55;;;4.80;;
83840;SDS011;73868;52.172;10.668;2024-03-23T02:42:03;10.55;;;3.97;;
83840;SDS011;73868;52.172;10.668;2024-03-23T02:44:29;11.10;;;4.35;;
83840;SDS011;73868;52.172;10.668;2024-03-23T02:46:54;12.05;;;5.03;;
83840;SDS011;73868;52.172;10.668;2024-03-23T02:49:20;10.82;;;4.78;;
83840;SDS011;73868;52.172;10.668;2024-03-23T02:51:46;13.52;;;5.07;;
83840;SDS011;73868;52.172;10.668;2024-03-23T02:54:13;9.30;;;4.70;;
83840;SDS011;73868;52.172;10.668;2024-03-23T02:56:39;8.20;;;4.30;;
83840;SDS011;73868;52.172;10.668;2024-03-23T02:59:04;8.52;;;4.28;;
83840;SDS011;73868;52.172;10.668;2024-03-23T03:01:30;9.50;;;4.60;;
83840;SDS011;73868;52.172;10.668;2024-03-23T03:03:56;10.55;;;4.50;;
83840;SDS011;73868;52.172;10.668;2024-03-23T03:06:25;8.03;;;4.03;;
83840;SDS011;73868;52.172;10.668;2024-03-23T03:08:51;8.90;;;4.30;;
83840;SDS011;73868;52.172;10.668;2024-03-23T03:11:16;8.32;;;4.20;;
83840;SDS011;73868;52.172;10.668;2024-03-23T03:13:42;9.25;;;4.03;;
83840;SDS011;73868;52.172;10.668;2024-03-23T03:16:10;10.15;;;4.20;;
83840;SDS011;73868;52.172;10.668;2024-03-23T03:18:36;9.48;;;4.43;;
83840;SDS011;73868;52.172;10.668;2024-03-23T03:21:02;10.77;;;4.15;;
83840;SDS011;73868;52.172;10.668;2024-03-23T03:23:30;9.17;;;3.80;;
83840;SDS011;73868;52.172;10.668;2024-03-23T03:25:56;9.57;;;4.38;;
83840;SDS011;73868;52.172;10.668;2024-03-23T03:28:22;8.52;;;4.15;;
83840;SDS011;73868;52.172;10.668;2024-03-23T03:30:47;11.77;;;4.07;;
83840;SDS011;73868;52.172;10.668;2024-03-23T03:33:13;8.60;;;4.05;;
83840;SDS011;73868;52.172;10.668;2024-03-23T03:35:38;7.18;;;3.80;;
83840;SDS011;73868;52.172;10.668;2024-03-23T03:38:04;11.40;;;4.03;;
83840;SDS011;73868;52.172;10.668;2024-03-23T03:40:30;8.70;;;3.73;;
83840;SDS011;73868;52.172;10.668;2024-03-23T03:42:55;9.77;;;3.72;;
83840;SDS011;73868;52.172;10.668;2024-03-23T03:45:21;8.50;;;3.20;;
83840;SDS011;73868;52.172;10.668;2024-03-23T03:47:46;7.47;;;3.67;;
83840;SDS011;73868;52.172;10.668;2024-03-23T03:50:12;10.73;;;3.38;;
83840;SDS011;73868;52.172;10.668;2024-03-23T03:52:38;9.03;;;3.40;;
83840;SDS011;73868;52.172;10.668;2024-03-23T03:55:03;8.57;;;3.30;;
83840;SDS011;73868;52.172;10.668;2024-03-23T03:57:38;6.32;;;3.28;;
83840;SDS011;73868;52.172;10.668;2024-03-23T04:00:03;8.00;;;3.63;;
83840;SDS011;73868;52.172;10.668;2024-03-23T04:02:29;8.77;;;3.70;;
83840;SDS011;73868;52.172;10.668;2024-03-23T04:04:55;9.63;;;3.63;;
83840;SDS011;73868;52.172;10.668;2024-03-23T04:07:20;9.57;;;3.83;;
83840;SDS011;73868;52.172;10.668;2024-03-23T04:09:47;7.38;;;3.38;;
83840;SDS011;73868;52.172;10.668;2024-03-23T04:12:14;9.55;;;3.85;;
83840;SDS011;73868;52.172;10.668;2024-03-23T04:14:41;10.43;;;4.07;;
83840;SDS011;73868;52.172;10.668;2024-03-23T04:17:06;8.23;;;3.80;;
83840;SDS011;73868;52.172;10.668;2024-03-23T04:19:32;7.25;;;4.40;;
83840;SDS011;73868;52.172;10.668;2024-03-23T04:21:58;9.23;;;4.28;;
83840;SDS011;73868;52.172;10.668;2024-03-23T04:24:24;12.10;;;5.73;;
83840;SDS011;73868;52.172;10.668;2024-03-23T04:26:51;11.00;;;5.70;;
83840;SDS011;73868;52.172;10.668;2024-03-23T04:29:16;14.32;;;6.68;;
83840;SDS011;73868;52.172;10.668;2024-03-23T04:31:42;13.50;;;7.03;;
83840;SDS011;73868;52.172;10.668;2024-03-23T04:34:07;13.85;;;7.55;;
83840;SDS011;73868;52.172;10.668;2024-03-23T04:36:33;15.10;;;8.70;;
83840;SDS011;73868;52.172;10.668;2024-03-23T04:38:59;15.13;;;8.57;;
83840;SDS011;73868;52.172;10.668;2024-03-23T04:41:25;13.83;;;8.30;;
83840;SDS011;73868;52.172;10.668;2024-03-23T04:43:51;13.87;;;8.47;;
83840;SDS011;73868;52.172;10.668;2024-03-23T04:46:17;27.67;;;7.80;;
83840;SDS011;73868;52.172;10.668;2024-03-23T04:48:42;11.02;;;7.20;;
83840;SDS011;73868;52.172;10.668;2024-03-23T04:51:09;11.27;;;7.20;;
83840;SDS011;73868;52.172;10.668;2024-03-23T04:53:37;13.63;;;6.80;;
83840;SDS011;73868;52.172;10.668;2024-03-23T04:56:03;13.70;;;7.53;;
83840;SDS011;73868;52.172;10.668;2024-03-23T04:58:29;13.02;;;6.90;;
83840;SDS011;73868;52.172;10.668;2024-03-23T05:00:55;15.73;;;6.73;;
83840;SDS011;73868;52.172;10.668;2024-03-23T05:03:21;14.93;;;6.13;;
83840;SDS011;73868;52.172;10.668;2024-03-23T05:05:47;13.20;;;5.43;;
83840;SDS011;73868;52.172;10.668;2024-03-23T05:08:13;12.27;;;5.07;;
83840;SDS011;73868;52.172;10.668;2024-03-23T05:10:41;13.47;;;5.30;;
83840;SDS011;73868;52.172;10.668;2024-03-23T05:13:09;10.07;;;4.50;;
83840;SDS011;73868;52.172;10.668;2024-03-23T05:15:35;9.57;;;5.00;;
83840;SDS011;73868;52.172;10.668;2024-03-23T05:18:01;7.90;;;3.87;;
83840;SDS011;73868;52.172;10.668;2024-03-23T05:20:26;9.50;;;4.13;;
83840;SDS011;73868;52.172;10.668;2024-03-23T05:22:52;8.20;;;3.60;;
83840;SDS011;73868;52.172;10.668;2024-03-23T05:25:19;10.97;;;3.83;;
83840;SDS011;73868;52.172;10.668;2024-03-23T05:27:45;7.27;;;3.00;;
83840;SDS011;73868;52.172;10.668;2024-03-23T05:30:10;9.77;;;3.60;;
83840;SDS011;73868;52.172;10.668;2024-03-23T05:32:36;12.13;;;3.63;;
83840;SDS011;73868;52.172;10.668;2024-03-23T05:35:03;10.50;;;3.63;;
83840;SDS011;73868;52.172;10.668;2024-03-23T05:37:29;10.33;;;3.03;;
83840;SDS011;73868;52.172;10.668;2024-03-23T05:39:56;7.53;;;3.50;;
83840;SDS011;73868;52.172;10.668;2024-03-23T05:42:21;8.63;;;3.20;;
83840;SDS011;73868;52.172;10.668;2024-03-23T05:44:47;10.20;;;3.03;;
83840;SDS011;73868;52.172;10.668;2024-03-23T05:47:12;6.03;;;3.00;;
83840;SDS011;73868;52.172;10.668;2024-03-23T05:49:39;7.77;;;2.90;;
83840;SDS011;73868;52.172;10.668;2024-03-23T05:52:09;8.93;;;2.73;;
83840;SDS011;73868;52.172;10.668;2024-03-23T05:54:35;7.83;;;3.03;;
83840;SDS011;73868;52.172;10.668;2024-03-23T05:57:01;10.97;;;3.40;;
83840;SDS011;73868;52.172;10.668;2024-03-23T05:59:27;9.57;;;3.28;;
83840;SDS011;73868;52.172;10.668;2024-03-23T06:01:52;8.50;;;3.17;;
83840;SDS011;73868;52.172;10.668;2024-03-23T06:04:18;9.73;;;3.03;;
83840;SDS011;73868;52.172;10.668;2024-03-23T06:06:44;7.85;;;3.33;;
83840;SDS011;73868;52.172;10.668;2024-03-23T06:09:10;9.77;;;3.60;;
83840;SDS011;73868;52.172;10.668;2024-03-23T06:11:35;6.22;;;3.00;;
83840;SDS011;73868;52.172;10.668;2024-03-23T06:14:01;5.93;;;3.27;;
83840;SDS011;73868;52.172;10.668;2024-03-23T06:16:27;7.07;;;3.40;;
83840;SDS011;73868;52.172;10.668;2024-03-23T06:18:53;7.20;;;3.37;;
83840;SDS011;73868;52.172;10.668;2024-03-23T06:21:19;11.33;;;4.20;;
83840;SDS011;73868;52.172;10.668;2024-03-23T06:23:45;7.40;;;3.60;;
83840;SDS011;73868;52.172;10.668;2024-03-23T06:26:17;9.73;;;4.13;;
83840;SDS011;73868;52.172;10.668;2024-03-23T06:28:44;9.97;;;3.50;;
83840;SDS011;73868;52.172;10.668;2024-03-23T06:31:10;9.00;;;4.23;;
83840;SDS011;73868;52.172;10.668;2024-03-23T06:33:36;10.53;;;4.10;;
83840;SDS011;73868;52.172;10.668;2024-03-23T06:36:01;10.63;;;4.07;;
83840;SDS011;73868;52.172;10.668;2024-03-23T06:38:28;11.80;;;4.63;;
83840;SDS011;73868;52.172;10.668;2024-03-23T06:40:53;9.27;;;4.40;;
83840;SDS011;73868;52.172;10.668;2024-03-23T06:43:19;13.00;;;3.60;;
83840;SDS011;73868;52.172;10.668;2024-03-23T06:45:44;8.67;;;3.50;;
83840;SDS011;73868;52.172;10.668;2024-03-23T06:48:20;10.07;;;4.00;;
83840;SDS011;73868;52.172;10.668;2024-03-23T06:50:47;14.13;;;6.17;;
83840;SDS011;73868;52.172;10.668;2024-03-23T06:53:14;10.30;;;3.87;;
83840;SDS011;73868;52.172;10.668;2024-03-23T06:55:40;9.23;;;2.87;;
83840;SDS011;73868;52.172;10.668;2024-03-23T06:58:06;8.73;;;3.07;;
83840;SDS011;73868;52.172;10.668;2024-03-23T07:00:32;8.17;;;2.90;;
83840;SDS011;73868;52.172;10.668;2024-03-23T07:02:58;6.53;;;2.87;;
83840;SDS011;73868;52.172;10.668;2024-03-23T07:05:24;6.77;;;2.53;;
83840;SDS011;73868;52.172;10.668;2024-03-23T07:07:50;7.17;;;2.10;;
83840;SDS011;73868;52.172;10.668;2024-03-23T07:10:16;4.23;;;2.10;;
83840;SDS011;73868;52.172;10.668;2024-03-23T07:12:42;6.33;;;1.90;;
83840;SDS011;73868;52.172;10.668;2024-03-23T07:15:30;7.37;;;2.50;;
83840;SDS011;73868;52.172;10.668;2024-03-23T07:17:56;8.37;;;2.20;;
83840;SDS011;73868;52.172;10.668;2024-03-23T07:20:21;7.83;;;2.00;;
83840;SDS011;73868;52.172;10.668;2024-03-23T07:22:47;6.93;;;2.00;;
83840;SDS011;73868;52.172;10.668;2024-03-23T07:25:13;5.57;;;1.77;;
83840;SDS011;73868;52.172;10.668;2024-03-23T07:27:38;6.33;;;2.17;;
83840;SDS011;73868;52.172;10.668;2024-03-23T07:30:04;5.50;;;1.70;;
83840;SDS011;73868;52.172;10.668;2024-03-23T07:32:31;4.63;;;1.60;;
83840;SDS011;73868;52.172;10.668;2024-03-23T07:34:56;6.63;;;2.07;;
83840;SDS011;73868;52.172;10.668;2024-03-23T07:37:22;7.13;;;2.73;;
83840;SDS011;73868;52.172;10.668;2024-03-23T07:39:47;5.23;;;1.93;;
83840;SDS011;73868;52.172;10.668;2024-03-23T07:42:13;6.20;;;1.90;;
83840;SDS011;73868;52.172;10.668;2024-03-23T07:44:39;6.53;;;1.63;;
83840;SDS011;73868;52.172;10.668;2024-03-23T07:47:05;7.13;;;2.00;;
83840;SDS011;73868;52.172;10.668;2024-03-23T07:49:30;7.57;;;1.87;;
83840;SDS011;73868;52.172;10.668;2024-03-23T07:51:56;6.33;;;2.20;;
83840;SDS011;73868;52.172;10.668;2024-03-23T07:54:21;6.23;;;2.00;;
83840;SDS011;73868;52.172;10.668;2024-03-23T07:56:47;6.00;;;1.63;;
83840;SDS011;73868;52.172;10.668;2024-03-23T07:59:13;7.47;;;1.60;;
83840;SDS011;73868;52.172;10.668;2024-03-23T08:01:38;6.30;;;2.03;;
83840;SDS011;73868;52.172;10.668;2024-03-23T08:04:04;7.55;;;2.10;;
83840;SDS011;73868;52.172;10.668;2024-03-23T08:06:31;6.13;;;1.87;;
83840;SDS011;73868;52.172;10.668;2024-03-23T08:08:56;8.63;;;1.70;;
83840;SDS011;73868;52.172;10.668;2024-03-23T08:11:30;6.17;;;1.60;;
83840;SDS011;73868;52.172;10.668;2024-03-23T08:13:57;6.00;;;1.73;;
83840;SDS011;73868;52.172;10.668;2024-03-23T08:16:23;7.27;;;2.00;;
83840;SDS011;73868;52.172;10.668;2024-03-23T08:18:50;7.60;;;2.17;;
83840;SDS011;73868;52.172;10.668;2024-03-23T08:21:16;6.47;;;1.73;;
83840;SDS011;73868;52.172;10.668;2024-03-23T08:23:43;4.40;;;1.87;;
83840;SDS011;73868;52.172;10.668;2024-03-23T08:26:10;5.28;;;1.70;;
83840;SDS011;73868;52.172;10.668;2024-03-23T08:28:36;5.40;;;1.55;;
83840;SDS011;73868;52.172;10.668;2024-03-23T08:31:06;8.53;;;2.10;;
83840;SDS011;73868;52.172;10.668;2024-03-23T08:33:33;5.32;;;2.05;;
83840;SDS011;73868;52.172;10.668;2024-03-23T08:36:00;5.23;;;1.80;;
83840;SDS011;73868;52.172;10.668;2024-03-23T08:38:27;10.27;;;4.13;;
83840;SDS011;73868;52.172;10.668;2024-03-23T08:41:00;10.67;;;4.77;;
83840;SDS011;73868;52.172;10.668;2024-03-23T08:43:31;8.90;;;3.60;;
83840;SDS011;73868;52.172;10.668;2024-03-23T08:46:06;10.20;;;3.50;;
83840;SDS011;73868;52.172;10.668;2024-03-23T08:48:36;7.83;;;2.93;;
83840;SDS011;73868;52.172;10.668;2024-03-23T08:51:10;9.43;;;3.07;;
83840;SDS011;73868;52.172;10.668;2024-03-23T08:53:37;9.50;;;2.70;;
83840;SDS011;73868;52.172;10.668;2024-03-23T08:56:03;8.50;;;3.30;;
83840;SDS011;73868;52.172;10.668;2024-03-23T08:58:31;10.13;;;2.70;;
83840;SDS011;73868;52.172;10.668;2024-03-23T09:01:10;6.63;;;2.20;;
83840;SDS011;73868;52.172;10.668;2024-03-23T09:03:38;10.73;;;2.50;;
83840;SDS011;73868;52.172;10.668;2024-03-23T09:06:07;6.80;;;2.13;;
83840;SDS011;73868;52.172;10.668;2024-03-23T09:08:34;6.88;;;2.20;;
83840;SDS011;73868;52.172;10.668;2024-03-23T09:11:04;8.65;;;2.42;;
83840;SDS011;73868;52.172;10.668;2024-03-23T09:13:31;6.68;;;2.88;;
83840;SDS011;73868;52.172;10.668;2024-03-23T09:16:00;13.05;;;3.22;;
83840;SDS011;73868;52.172;10.668;2024-03-23T09:18:26;5.72;;;2.63;;
83840;SDS011;73868;52.172;10.668;2024-03-23T09:20:51;7.10;;;3.20;;
83840;SDS011;73868;52.172;10.668;2024-03-23T09:23:19;10.10;;;4.85;;
83840;SDS011;73868;52.172;10.668;2024-03-23T09:25:46;10.85;;;5.32;;
83840;SDS011;73868;52.172;10.668;2024-03-23T09:28:13;9.95;;;4.55;;
83840;SDS011;73868;52.172;10.668;2024-03-23T09:30:38;8.73;;;4.38;;
83840;SDS011;73868;52.172;10.668;2024-03-23T09:33:07;7.60;;;4.13;;
83840;SDS011;73868;52.172;10.668;2024-03-23T09:35:40;8.68;;;3.75;;
83840;SDS011;73868;52.172;10.668;2024-03-23T09:38:07;9.15;;;3.38;;
83840;SDS011;73868;52.172;10.668;2024-03-23T09:40:34;9.27;;;3.22;;
83840;SDS011;73868;52.172;10.668;2024-03-23T09:43:00;9.87;;;3.20;;
83840;SDS011;73868;52.172;10.668;2024-03-23T09:45:26;6.93;;;3.00;;
83840;SDS011;73868;52.172;10.668;2024-03-23T09:47:54;7.10;;;2.65;;
83840;SDS011;73868;52.172;10.668;2024-03-23T09:50:21;10.33;;;3.03;;
83840;SDS011;73868;52.172;10.668;2024-03-23T09:52:46;9.73;;;3.47;;
83840;SDS011;73868;52.172;10.668;2024-03-23T09:55:12;10.57;;;3.60;;
83840;SDS011;73868;52.172;10.668;2024-03-23T09:57:39;10.73;;;4.17;;
83840;SDS011;73868;52.172;10.668;2024-03-23T10:00:05;8.97;;;4.20;;
83840;SDS011;73868;52.172;10.668;2024-03-23T10:02:32;10.93;;;4.20;;
83840;SDS011;73868;52.172;10.668;2024-03-23T10:05:02;11.88;;;4.47;;
83840;SDS011;73868;52.172;10.668;2024-03-23T10:07:28;11.70;;;4.53;;
83840;SDS011;73868;52.172;10.668;2024-03-23T10:09:54;12.23;;;4.20;;
83840;SDS011;73868;52.172;10.668;2024-03-23T10:12:20;11.97;;;5.03;;
83840;SDS011;73868;52.172;10.668;2024-03-23T10:14:46;8.77;;;3.42;;
83840;SDS011;73868;52.172;10.668;2024-03-23T10:17:12;7.82;;;4.03;;
83840;SDS011;73868;52.172;10.668;2024-03-23T10:19:43;10.93;;;4.90;;
83840;SDS011;73868;52.172;10.668;2024-03-23T10:22:10;11.40;;;5.10;;
83840;SDS011;73868;52.172;10.668;2024-03-23T10:24:38;15.15;;;5.15;;
83840;SDS011;73868;52.172;10.668;2024-03-23T10:27:04;13.18;;;5.38;;
83840;SDS011;73868;52.172;10.668;2024-03-23T10:29:29;12.73;;;5.78;;
83840;SDS011;73868;52.172;10.668;2024-03-23T10:32:00;9.45;;;4.80;;
83840;SDS011;73868;52.172;10.668;2024-03-23T10:34:40;8.93;;;4.72;;
83840;SDS011;73868;52.172;10.668;2024-03-23T10:37:06;13.10;;;4.97;;
83840;SDS011;73868;52.172;10.668;2024-03-23T10:39:33;10.75;;;5.30;;
83840;SDS011;73868;52.172;10.668;2024-03-23T10:42:04;10.02;;;4.95;;
83840;SDS011;73868;52.172;10.668;2024-03-23T10:44:31;10.90;;;5.22;;
83840;SDS011;73868;52.172;10.668;2024-03-23T10:47:00;13.13;;;5.40;;
83840;SDS011;73868;52.172;10.668;2024-03-23T10:49:30;8.20;;;4.57;;
83840;SDS011;73868;52.172;10.668;2024-03-23T10:52:00;10.38;;;4.90;;
83840;SDS011;73868;52.172;10.668;2024-03-23T10:54:30;12.48;;;5.07;;
83840;SDS011;73868;52.172;10.668;2024-03-23T10:56:57;9.80;;;4.55;;
83840;SDS011;73868;52.172;10.668;2024-03-23T10:59:44;9.00;;;4.13;;
83840;SDS011;73868;52.172;10.668;2024-03-23T11:02:20;8.25;;;4.15;;
83840;SDS011;73868;52.172;10.668;2024-03-23T11:04:47;8.48;;;3.75;;
83840;SDS011;73868;52.172;10.668;2024-03-23T11:07:31;12.18;;;4.13;;
83840;SDS011;73868;52.172;10.668;2024-03-23T11:09:58;11.52;;;4.25;;
83840;SDS011;73868;52.172;10.668;2024-03-23T11:15:06;10.00;;;3.40;;
83840;SDS011;73868;52.172;10.668;2024-03-23T11:17:38;10.30;;;3.38;;
83840;SDS011;73868;52.172;10.668;2024-03-23T11:20:04;8.85;;;3.45;;
83840;SDS011;73868;52.172;10.668;2024-03-23T11:27:40;9.45;;;3.78;;
83840;SDS011;73868;52.172;10.668;2024-03-23T11:30:10;8.77;;;4.10;;
83840;SDS011;73868;52.172;10.668;2024-03-23T11:32:40;8.38;;;3.75;;
83840;SDS011;73868;52.172;10.668;2024-03-23T11:35:07;11.38;;;5.82;;
83840;SDS011;73868;52.172;10.668;2024-03-23T11:37:34;9.40;;;3.97;;
83840;SDS011;73868;52.172;10.668;2024-03-23T11:40:18;8.10;;;3.80;;
83840;SDS011;73868;52.172;10.668;2024-03-23T11:42:45;7.32;;;3.40;;
83840;SDS011;73868;52.172;10.668;2024-03-23T11:45:10;12.93;;;4.05;;
83840;SDS011;73868;52.172;10.668;2024-03-23T11:47:36;83.55;;;11.32;;
83840;SDS011;73868;52.172;10.668;2024-03-23T11:50:02;40.00;;;6.88;;
83840;SDS011;73868;52.172;10.668;2024-03-23T11:52:28;41.53;;;5.85;;
83840;SDS011;73868;52.172;10.668;2024-03-23T11:55:04;42.65;;;6.45;;
83840;SDS011;73868;52.172;10.668;2024-03-23T11:57:32;11.40;;;5.28;;
83840;SDS011;73868;52.172;10.668;2024-03-23T11:59:58;20.00;;;5.15;;
83840;SDS011;73868;52.172;10.668;2024-03-23T12:02:23;11.00;;;3.15;;
83840;SDS011;73868;52.172;10.668;2024-03-23T12:04:49;3.88;;;1.65;;
83840;SDS011;73868;52.172;10.668;2024-03-23T12:07:17;4.25;;;2.20;;
83840;SDS011;73868;52.172;10.668;2024-03-23T12:09:44;4.40;;;1.63;;
83840;SDS011;73868;52.172;10.668;2024-03-23T12:12:17;9.85;;;2.17;;
83840;SDS011;73868;52.172;10.668;2024-03-23T12:14:43;5.07;;;1.30;;
83840;SDS011;73868;52.172;10.668;2024-03-23T12:17:28;6.93;;;2.22;;
83840;SDS011;73868;52.172;10.668;2024-03-23T12:19:54;2.75;;;1.85;;
83840;SDS011;73868;52.172;10.668;2024-03-23T12:22:23;3.83;;;2.40;;
83840;SDS011;73868;52.172;10.668;2024-03-23T12:24:49;4.82;;;2.15;;
83840;SDS011;73868;52.172;10.668;2024-03-23T12:27:15;4.97;;;2.15;;
83840;SDS011;73868;52.172;10.668;2024-03-23T12:29:41;6.00;;;3.38;;
83840;SDS011;73868;52.172;10.668;2024-03-23T12:32:10;5.65;;;2.38;;
83840;SDS011;73868;52.172;10.668;2024-03-23T12:34:36;2.97;;;2.13;;
83840;SDS011;73868;52.172;10.668;2024-03-23T12:37:01;4.22;;;2.00;;
83840;SDS011;73868;52.172;10.668;2024-03-23T12:39:27;3.80;;;2.20;;
83840;SDS011;73868;52.172;10.668;2024-03-23T12:41:53;3.88;;;2.10;;
83840;SDS011;73868;52.172;10.668;2024-03-23T12:44:18;2.83;;;1.70;;
83840;SDS011;73868;52.172;10.668;2024-03-23T12:46:44;4.95;;;2.53;;
83840;SDS011;73868;52.172;10.668;2024-03-23T12:49:10;2.58;;;1.80;;
83840;SDS011;73868;52.172;10.668;2024-03-23T12:51:36;4.10;;;2.00;;
83840;SDS011;73868;52.172;10.668;2024-03-23T12:54:02;2.90;;;1.90;;
83840;SDS011;73868;52.172;10.668;2024-03-23T12:56:46;3.17;;;1.70;;
83840;SDS011;73868;52.172;10.668;2024-03-23T12:59:12;4.05;;;2.20;;
83840;SDS011;73868;52.172;10.668;2024-03-23T13:01:38;3.53;;;1.88;;
83840;SDS011;73868;52.172;10.668;2024-03-23T13:04:04;5.45;;;1.60;;
83840;SDS011;73868;52.172;10.668;2024-03-23T13:06:30;3.88;;;1.80;;
83840;SDS011;73868;52.172;10.668;2024-03-23T13:08:59;4.35;;;2.00;;
83840;SDS011;73868;52.172;10.668;2024-03-23T13:11:28;3.88;;;1.77;;
83840;SDS011;73868;52.172;10.668;2024-03-23T13:13:54;2.65;;;1.75;;
83840;SDS011;73868;52.172;10.668;2024-03-23T13:16:20;3.40;;;2.30;;
83840;SDS011;73868;52.172;10.668;2024-03-23T13:18:45;3.15;;;2.10;;
83840;SDS011;73868;52.172;10.668;2024-03-23T13:21:11;2.88;;;2.33;;
83840;SDS011;73868;52.172;10.668;2024-03-23T13:23:41;6.45;;;2.20;;
83840;SDS011;73868;52.172;10.668;2024-03-23T13:26:08;4.57;;;2.78;;
83840;SDS011;73868;52.172;10.668;2024-03-23T13:28:34;5.10;;;3.23;;
83840;SDS011;73868;52.172;10.668;2024-03-23T13:31:01;5.53;;;2.97;;
83840;SDS011;73868;52.172;10.668;2024-03-23T13:33:28;7.13;;;5.00;;
83840;SDS011;73868;52.172;10.668;2024-03-23T13:35:57;4.70;;;2.70;;
83840;SDS011;73868;52.172;10.668;2024-03-23T13:38:23;4.80;;;3.25;;
83840;SDS011;73868;52.172;10.668;2024-03-23T13:40:58;3.17;;;2.42;;
83840;SDS011;73868;52.172;10.668;2024-03-23T13:43:25;4.45;;;2.20;;
83840;SDS011;73868;52.172;10.668;2024-03-23T13:45:56;4.22;;;2.25;;
83840;SDS011;73868;52.172;10.668;2024-03-23T13:48:23;5.40;;;2.03;;
83840;SDS011;73868;52.172;10.668;2024-03-23T13:50:58;2.83;;;1.95;;
83840;SDS011;73868;52.172;10.668;2024-03-23T13:53:25;3.13;;;2.38;;
83840;SDS011;73868;52.172;10.668;2024-03-23T13:55:50;3.60;;;2.50;;
83840;SDS011;73868;52.172;10.668;2024-03-23T13:58:16;3.20;;;2.07;;
83840;SDS011;73868;52.172;10.668;2024-03-23T14:00:42;4.37;;;1.37;;
83840;SDS011;73868;52.172;10.668;2024-03-23T14:03:08;2.23;;;1.40;;
83840;SDS011;73868;52.172;10.668;2024-03-23T14:05:34;2.27;;;1.43;;
83840;SDS011;73868;52.172;10.668;2024-03-23T14:07:59;1.77;;;1.00;;
83840;SDS011;73868;52.172;10.668;2024-03-23T14:10:25;1.53;;;1.10;;
83840;SDS011;73868;52.172;10.668;2024-03-23T14:12:52;1.20;;;1.07;;
83840;SDS011;73868;52.172;10.668;2024-03-23T14:15:18;2.00;;;1.00;;
83840;SDS011;73868;52.172;10.668;2024-03-23T14:17:43;3.58;;;1.38;;
83840;SDS011;73868;52.172;10.668;2024-03-23T14:20:09;2.30;;;1.60;;
83840;SDS011;73868;52.172;10.668;2024-03-23T14:22:36;2.07;;;1.60;;
83840;SDS011;73868;52.172;10.668;2024-03-23T14:25:02;2.43;;;1.60;;
83840;SDS011;73868;52.172;10.668;2024-03-23T14:27:28;3.60;;;1.90;;
83840;SDS011;73868;52.172;10.668;2024-03-23T14:29:54;2.35;;;1.88;;
83840;SDS011;73868;52.172;10.668;2024-03-23T14:32:21;3.55;;;2.30;;
83840;SDS011;73868;52.172;10.668;2024-03-23T14:34:47;4.97;;;2.60;;
83840;SDS011;73868;52.172;10.668;2024-03-23T14:37:12;4.13;;;2.60;;
83840;SDS011;73868;52.172;10.668;2024-03-23T14:39:38;3.90;;;2.23;;
83840;SDS011;73868;52.172;10.668;2024-03-23T14:42:06;3.87;;;2.30;;
83840;SDS011;73868;52.172;10.668;2024-03-23T14:44:33;3.87;;;1.93;;
83840;SDS011;73868;52.172;10.668;2024-03-23T14:46:59;2.50;;;1.80;;
83840;SDS011;73868;52.172;10.668;2024-03-23T14:49:24;1.90;;;1.50;;
83840;SDS011;73868;52.172;10.668;2024-03-23T14:51:51;2.80;;;1.40;;
83840;SDS011;73868;52.172;10.668;2024-03-23T14:54:16;2.73;;;1.50;;
83840;SDS011;73868;52.172;10.668;2024-03-23T14:56:42;3.13;;;1.40;;
83840;SDS011;73868;52.172;10.668;2024-03-23T14:59:07;2.13;;;1.60;;
83840;SDS011;73868;52.172;10.668;2024-03-23T15:01:33;3.60;;;1.73;;
83840;SDS011;73868;52.172;10.668;2024-03-23T15:03:59;2.57;;;1.43;;
83840;SDS011;73868;52.172;10.668;2024-03-23T15:06:25;3.77;;;1.70;;
83840;SDS011;73868;52.172;10.668;2024-03-23T15:08:50;3.97;;;2.00;;
83840;SDS011;73868;52.172;10.668;2024-03-23T15:11:16;4.37;;;1.90;;
83840;SDS011;73868;52.172;10.668;2024-03-23T15:13:44;5.13;;;2.30;;
83840;SDS011;73868;52.172;10.668;2024-03-23T15:16:10;8.30;;;2.50;;
83840;SDS011;73868;52.172;10.668;2024-03-23T15:18:36;4.97;;;2.60;;
83840;SDS011;73868;52.172;10.668;2024-03-23T15:21:02;4.77;;;3.40;;
83840;SDS011;73868;52.172;10.668;2024-03-23T15:23:32;5.20;;;3.60;;
83840;SDS011;73868;52.172;10.668;2024-03-23T15:25:58;3.27;;;2.30;;
83840;SDS011;73868;52.172;10.668;2024-03-23T15:28:28;3.57;;;2.90;;
83840;SDS011;73868;52.172;10.668;2024-03-23T15:31:04;2.80;;;2.43;;